createdAt,value
2023-06-04T00:01:32.655Z,2.35
2023-06-04T00:04:01.171Z,2.75
2023-06-04T00:06:29.631Z,2.53
2023-06-04T00:08:58.236Z,2.67
2023-06-04T00:11:27.747Z,2.22
2023-06-04T00:13:56.542Z,2.53
2023-06-04T00:16:26.388Z,2.30
2023-06-04T00:18:55.010Z,3.65
2023-06-04T00:21:24.373Z,2.90
2023-06-04T00:23:52.839Z,2.22
2023-06-04T00:26:21.656Z,2.35
2023-06-04T00:28:50.126Z,2.47
2023-06-04T00:31:19.125Z,3.45
2023-06-04T00:33:49.465Z,2.50
2023-06-04T00:36:18.108Z,2.75
2023-06-04T00:38:46.716Z,3.38
2023-06-04T00:41:15.114Z,2.80
2023-06-04T00:43:47.107Z,2.50
2023-06-04T00:46:19.511Z,2.22
2023-06-04T00:48:49.498Z,2.97
2023-06-04T00:51:17.998Z,3.22
2023-06-04T00:53:46.415Z,2.28
2023-06-04T00:56:15.264Z,2.53
2023-06-04T00:58:44.104Z,2.03
2023-06-04T01:01:17.619Z,2.63
2023-06-04T01:03:49.361Z,2.90
2023-06-04T01:06:23.995Z,3.15
2023-06-04T01:08:55.581Z,2.88
2023-06-04T01:11:37.213Z,2.47
2023-06-04T01:14:06.312Z,2.40
2023-06-04T01:16:37.665Z,2.40
2023-06-04T01:19:10.043Z,2.45
2023-06-04T01:21:40.097Z,2.05
2023-06-04T01:24:09.387Z,2.42
2023-06-04T01:26:38.822Z,2.25
2023-06-04T01:29:08.591Z,3.15
2023-06-04T01:31:37.178Z,4.05
2023-06-04T01:34:09.888Z,2.05
2023-06-04T01:36:38.476Z,2.85
2023-06-04T01:39:06.844Z,2.58
2023-06-04T01:41:35.477Z,3.03
2023-06-04T01:44:03.855Z,3.00
2023-06-04T01:46:32.525Z,2.70
2023-06-04T01:49:01.003Z,2.53
2023-06-04T01:51:31.387Z,2.90
2023-06-04T01:53:59.936Z,2.08
2023-06-04T01:56:29.030Z,3.28
2023-06-04T01:58:57.764Z,4.63
2023-06-04T02:01:26.184Z,2.50
2023-06-04T02:03:54.633Z,3.40
2023-06-04T02:06:23.296Z,1.98
2023-06-04T02:08:55.311Z,2.20
2023-06-04T02:11:24.291Z,2.38
2023-06-04T02:13:52.785Z,2.30
2023-06-04T02:16:21.521Z,2.05
2023-06-04T02:18:50.085Z,2.03
2023-06-04T02:21:18.700Z,2.30
2023-06-04T02:23:47.282Z,2.13
2023-06-04T02:26:17.102Z,3.17
2023-06-04T02:28:45.595Z,2.17
2023-06-04T02:31:14.014Z,2.25
2023-06-04T02:33:42.594Z,2.13
2023-06-04T02:36:11.588Z,3.05
2023-06-04T02:38:40.045Z,2.60
2023-06-04T02:41:08.978Z,1.98
2023-06-04T02:43:40.726Z,2.13
2023-06-04T02:46:09.518Z,2.38
2023-06-04T02:48:38.014Z,3.40
2023-06-04T02:51:07.202Z,1.80
2023-06-04T02:53:35.872Z,1.98
2023-06-04T02:56:04.286Z,2.45
2023-06-04T02:58:32.898Z,1.90
2023-06-04T03:01:02.722Z,2.47
2023-06-04T03:03:32.643Z,2.50
2023-06-04T03:06:03.719Z,2.35
2023-06-04T03:08:32.096Z,2.08
2023-06-04T03:11:00.683Z,2.05
2023-06-04T03:13:29.136Z,2.38
2023-06-04T03:15:58.392Z,3.45
2023-06-04T03:18:28.157Z,2.05
2023-06-04T03:20:56.963Z,2.45
2023-06-04T03:23:25.458Z,2.10
2023-06-04T03:25:54.148Z,1.98
2023-06-04T03:28:22.603Z,1.77
2023-06-04T03:30:51.014Z,2.00
2023-06-04T03:33:21.223Z,2.30
2023-06-04T03:35:51.907Z,1.88
2023-06-04T03:38:20.650Z,1.80
2023-06-04T03:40:49.120Z,1.95
2023-06-04T03:43:17.569Z,2.17
2023-06-04T03:45:46.163Z,2.60
2023-06-04T03:48:14.537Z,1.70
2023-06-04T03:50:43.892Z,1.83
2023-06-04T03:53:13.770Z,1.67
2023-06-04T03:55:42.147Z,1.80
2023-06-04T03:58:12.925Z,2.42
2023-06-04T04:00:41.363Z,1.55
2023-06-04T04:03:11.304Z,1.88
2023-06-04T04:05:39.934Z,2.00
2023-06-04T04:08:10.145Z,1.77
2023-06-04T04:10:40.050Z,1.70
2023-06-04T04:13:08.420Z,1.88
2023-06-04T04:15:37.365Z,1.92
2023-06-04T04:18:05.994Z,1.88
2023-06-04T04:20:34.421Z,2.10
2023-06-04T04:23:02.913Z,1.80
2023-06-04T04:25:33.665Z,1.60
2023-06-04T04:28:03.669Z,1.40
2023-06-04T04:30:34.703Z,1.80
2023-06-04T04:33:03.415Z,1.90
2023-06-04T04:35:33.768Z,1.92
2023-06-04T04:38:04.537Z,2.38
2023-06-04T04:40:33.167Z,1.65
2023-06-04T04:43:02.962Z,1.73
2023-06-04T04:45:31.450Z,1.85
2023-06-04T04:47:59.891Z,2.38
2023-06-04T04:50:28.520Z,1.65
2023-06-04T04:52:56.924Z,1.75
2023-06-04T04:55:25.668Z,1.63
2023-06-04T04:57:54.163Z,1.52
2023-06-04T05:00:23.922Z,1.75
2023-06-04T05:02:52.511Z,2.00
2023-06-04T05:05:20.991Z,1.92
2023-06-04T05:07:49.335Z,1.63
2023-06-04T05:10:18.516Z,1.70
2023-06-04T05:12:54.283Z,1.58
2023-06-04T05:15:25.867Z,2.53
2023-06-04T05:17:54.467Z,1.70
2023-06-04T05:20:23.923Z,1.80
2023-06-04T05:22:53.693Z,1.88
2023-06-04T05:25:22.720Z,1.77
2023-06-04T05:27:51.725Z,2.35
2023-06-04T05:30:20.230Z,1.42
2023-06-04T05:32:51.908Z,1.60
2023-06-04T05:35:20.719Z,1.45
2023-06-04T05:37:55.604Z,1.35
2023-06-04T05:40:24.133Z,2.92
2023-06-04T05:42:52.598Z,1.80
2023-06-04T05:45:21.110Z,2.03
2023-06-04T05:47:50.897Z,1.83
2023-06-04T05:50:19.516Z,2.15
2023-06-04T05:52:48.013Z,1.80
2023-06-04T05:55:17.901Z,1.42
2023-06-04T05:57:46.384Z,1.83
2023-06-04T06:00:15.878Z,1.63
2023-06-04T06:02:44.908Z,1.50
2023-06-04T06:05:14.820Z,2.22
2023-06-04T06:07:43.841Z,1.60
2023-06-04T06:10:13.341Z,1.70
2023-06-04T06:12:41.814Z,1.70
2023-06-04T06:15:13.837Z,2.40
2023-06-04T06:17:43.189Z,1.48
2023-06-04T06:20:18.877Z,1.65
2023-06-04T06:22:47.978Z,1.42
2023-06-04T06:25:17.110Z,1.58
2023-06-04T06:27:45.866Z,1.58
2023-06-04T06:30:16.695Z,1.60
2023-06-04T06:32:45.133Z,1.70
2023-06-04T06:35:15.090Z,1.60
2023-06-04T06:37:44.546Z,1.60
2023-06-04T06:40:13.797Z,1.20
2023-06-04T06:42:42.235Z,1.50
2023-06-04T06:45:12.140Z,1.48
2023-06-04T06:47:40.883Z,1.73
2023-06-04T06:50:12.071Z,1.30
2023-06-04T06:52:41.983Z,1.90
2023-06-04T06:55:11.032Z,1.83
2023-06-04T06:57:39.632Z,1.60
2023-06-04T07:00:11.129Z,1.30
2023-06-04T07:02:39.631Z,1.45
2023-06-04T07:05:08.790Z,1.50
2023-06-04T07:07:37.757Z,1.38
2023-06-04T07:10:08.617Z,2.03
2023-06-04T07:12:37.171Z,1.17
2023-06-04T07:15:07.232Z,1.60
2023-06-04T07:17:35.767Z,1.27
2023-06-04T07:20:05.156Z,1.08
2023-06-04T07:22:33.672Z,1.30
2023-06-04T07:25:02.535Z,1.13
2023-06-04T07:27:32.980Z,1.40
2023-06-04T07:30:01.585Z,2.17
2023-06-04T07:32:30.152Z,1.40
2023-06-04T07:34:58.596Z,1.83
2023-06-04T07:37:27.208Z,1.42
2023-06-04T07:39:55.655Z,1.52
2023-06-04T07:42:24.248Z,1.38
2023-06-04T07:44:53.980Z,1.70
2023-06-04T07:47:22.904Z,4.47
2023-06-04T07:50:01.886Z,1.58
2023-06-04T07:52:31.366Z,1.55
2023-06-04T07:54:59.794Z,1.70
2023-06-04T07:57:28.213Z,2.05
2023-06-04T07:59:58.158Z,1.80
2023-06-04T08:02:26.784Z,1.98
2023-06-04T08:04:55.579Z,1.60
2023-06-04T08:07:24.189Z,3.15
2023-06-04T08:09:53.038Z,2.97
2023-06-04T08:12:21.736Z,2.53
2023-06-04T08:14:51.327Z,1.40
2023-06-04T08:17:21.254Z,2.20
2023-06-04T08:19:49.778Z,7.05
2023-06-04T08:22:18.319Z,3.70
2023-06-04T08:24:47.194Z,3.65
2023-06-04T08:27:15.738Z,1.92
2023-06-04T08:29:44.273Z,1.90
2023-06-04T08:32:13.122Z,1.75
2023-06-04T08:34:43.065Z,1.90
2023-06-04T08:37:11.671Z,2.47
2023-06-04T08:39:40.190Z,3.00
2023-06-04T08:42:09.780Z,2.03
2023-06-04T08:44:38.273Z,2.15
2023-06-04T08:47:08.094Z,2.60
2023-06-04T08:49:38.083Z,2.95
2023-06-04T08:52:08.276Z,2.60
2023-06-04T08:54:37.005Z,1.77
2023-06-04T08:57:06.100Z,1.92
2023-06-04T08:59:34.577Z,2.17
2023-06-04T09:02:03.261Z,3.05
2023-06-04T09:04:31.930Z,3.17
2023-06-04T09:07:02.519Z,1.60
2023-06-04T09:09:32.617Z,1.95
2023-06-04T09:12:01.223Z,2.05
2023-06-04T09:14:29.852Z,1.88
2023-06-04T09:16:59.953Z,2.47
2023-06-04T09:19:28.518Z,1.70
2023-06-04T09:21:58.551Z,2.80
2023-06-04T09:24:28.059Z,3.22
2023-06-04T09:26:58.114Z,1.80
2023-06-04T09:29:26.701Z,3.25
2023-06-04T09:32:00.602Z,4.35
2023-06-04T09:34:32.239Z,2.00
2023-06-04T09:37:01.098Z,1.98
2023-06-04T09:39:29.797Z,2.00
2023-06-04T09:42:03.013Z,2.17
2023-06-04T09:44:31.607Z,1.92
2023-06-04T09:47:00.497Z,1.95
2023-06-04T09:49:30.483Z,4.05
2023-06-04T09:51:59.233Z,1.80
2023-06-04T09:54:38.950Z,2.00
2023-06-04T09:57:18.108Z,2.33
2023-06-04T09:59:47.859Z,2.65
2023-06-04T10:02:16.348Z,1.90
2023-06-04T10:04:44.834Z,1.80
2023-06-04T10:07:14.627Z,2.00
2023-06-04T10:09:46.840Z,1.92
2023-06-04T10:12:18.025Z,3.88
2023-06-04T10:14:57.103Z,2.67
2023-06-04T10:17:26.865Z,2.17
2023-06-04T10:19:55.573Z,2.00
2023-06-04T10:22:24.212Z,3.63
2023-06-04T10:24:52.665Z,2.63
2023-06-04T10:27:23.242Z,1.65
2023-06-04T10:29:53.754Z,2.60
2023-06-04T10:32:22.264Z,1.80
2023-06-04T10:34:51.127Z,4.15
2023-06-04T10:37:23.027Z,2.30
2023-06-04T10:39:55.286Z,2.15
2023-06-04T10:42:25.217Z,1.80
2023-06-04T10:44:57.362Z,2.10
2023-06-04T10:47:27.429Z,2.15
2023-06-04T10:49:56.420Z,3.35
2023-06-04T10:52:25.039Z,2.42
2023-06-04T10:54:54.674Z,1.63
2023-06-04T10:57:24.625Z,1.83
2023-06-04T10:59:56.927Z,2.15
2023-06-04T11:02:25.506Z,1.80
2023-06-04T11:05:07.341Z,2.08
2023-06-04T11:07:46.337Z,1.92
2023-06-04T11:10:15.433Z,2.83
2023-06-04T11:12:46.277Z,2.00
2023-06-04T11:15:14.944Z,3.72
2023-06-04T11:18:01.894Z,1.98
2023-06-04T11:20:30.644Z,2.42
2023-06-04T11:23:00.962Z,1.65
2023-06-04T11:25:30.279Z,2.28
2023-06-04T11:28:00.374Z,2.65
2023-06-04T11:30:28.894Z,1.75
2023-06-04T11:33:04.968Z,1.90
2023-06-04T11:35:33.644Z,1.70
2023-06-04T11:38:02.028Z,1.63
2023-06-04T11:40:31.901Z,1.90
2023-06-04T11:43:01.656Z,1.90
2023-06-04T11:45:31.480Z,1.98
2023-06-04T11:48:00.054Z,1.90
2023-06-04T11:50:30.889Z,2.42
2023-06-04T11:52:59.321Z,5.32
2023-06-04T11:55:27.783Z,4.32
2023-06-04T11:57:56.440Z,5.30
2023-06-04T12:00:26.374Z,2.40
2023-06-04T12:02:56.143Z,4.63
2023-06-04T12:05:26.397Z,6.30
2023-06-04T12:07:56.006Z,6.63
2023-06-04T12:10:25.425Z,6.70
2023-06-04T12:12:57.117Z,8.65
2023-06-04T12:15:27.215Z,5.13
2023-06-04T12:17:56.023Z,5.80
2023-06-04T12:20:38.155Z,8.10
2023-06-04T12:23:07.494Z,21.20
2023-06-04T12:25:38.781Z,5.55
2023-06-04T12:28:07.476Z,11.50
2023-06-04T12:30:41.002Z,9.27
2023-06-04T12:33:09.812Z,12.55
2023-06-04T12:35:38.210Z,14.18
2023-06-04T12:38:10.496Z,14.27
2023-06-04T12:40:39.102Z,18.73
2023-06-04T12:43:08.379Z,13.07
2023-06-04T12:45:36.988Z,17.38
2023-06-04T12:48:07.449Z,9.50
2023-06-04T12:50:39.318Z,8.13
2023-06-04T12:53:07.794Z,18.08
2023-06-04T12:55:36.245Z,13.27
2023-06-04T12:58:04.742Z,13.00
2023-06-04T13:00:33.114Z,12.05
2023-06-04T13:03:01.618Z,15.98
2023-06-04T13:05:31.560Z,10.13
2023-06-04T13:08:00.139Z,8.85
2023-06-04T13:10:28.534Z,8.15
2023-06-04T13:12:56.969Z,10.80
2023-06-04T13:15:26.449Z,9.70
2023-06-04T13:17:54.924Z,12.48
2023-06-04T13:20:23.747Z,17.85
2023-06-04T13:22:53.521Z,14.93
2023-06-04T13:25:21.912Z,19.98
2023-06-04T13:27:51.345Z,17.92
2023-06-04T13:30:19.770Z,24.33
2023-06-04T13:32:48.623Z,20.33
2023-06-04T13:35:17.681Z,20.27
2023-06-04T13:37:46.105Z,23.45
2023-06-04T13:40:16.386Z,27.42
2023-06-04T13:42:44.998Z,18.25
2023-06-04T13:45:13.743Z,23.33
2023-06-04T13:47:42.257Z,20.75
2023-06-04T13:50:12.294Z,18.15
2023-06-04T13:52:40.844Z,14.77
2023-06-04T13:55:10.126Z,18.63
2023-06-04T13:57:40.332Z,17.92
2023-06-04T14:00:10.864Z,11.93
2023-06-04T14:02:39.419Z,16.63
2023-06-04T14:05:09.062Z,17.63
2023-06-04T14:07:37.468Z,21.05
2023-06-04T14:10:07.148Z,13.00
2023-06-04T14:12:36.390Z,22.75
2023-06-04T14:15:08.091Z,16.38
2023-06-04T14:17:36.734Z,17.88
2023-06-04T14:20:08.644Z,17.10
2023-06-04T14:22:37.351Z,15.82
2023-06-04T14:25:06.392Z,14.48
2023-06-04T14:27:34.893Z,12.70
2023-06-04T14:30:05.323Z,18.60
2023-06-04T14:32:35.209Z,13.70
2023-06-04T14:35:03.729Z,12.52
2023-06-04T14:37:32.219Z,15.70
2023-06-04T14:40:00.655Z,13.25
2023-06-04T14:42:29.123Z,13.93
2023-06-04T14:44:57.677Z,14.57
2023-06-04T14:47:27.724Z,12.60
2023-06-04T14:49:56.264Z,12.05
2023-06-04T14:52:24.821Z,13.35
2023-06-04T14:54:55.444Z,11.43
2023-06-04T14:57:24.271Z,15.32
2023-06-04T14:59:52.707Z,12.27
2023-06-04T15:02:21.850Z,9.23
2023-06-04T15:04:52.018Z,9.65
2023-06-04T15:07:20.660Z,14.18
2023-06-04T15:09:49.804Z,13.63
2023-06-04T15:12:20.702Z,10.73
2023-06-04T15:14:49.137Z,11.07
2023-06-04T15:17:17.940Z,12.07
2023-06-04T15:19:46.367Z,9.13
2023-06-04T15:22:16.477Z,8.70
2023-06-04T15:24:45.356Z,7.00
2023-06-04T15:27:13.805Z,9.43
2023-06-04T15:29:42.490Z,11.05
2023-06-04T15:32:10.919Z,9.57
2023-06-04T15:34:39.609Z,9.48
2023-06-04T15:37:08.260Z,10.55
2023-06-04T15:39:38.205Z,10.95
2023-06-04T15:42:08.052Z,10.32
2023-06-04T15:44:36.621Z,10.32
2023-06-04T15:47:05.493Z,10.63
2023-06-04T15:49:33.965Z,9.10
2023-06-04T15:52:02.562Z,8.63
2023-06-04T15:54:44.943Z,9.32
2023-06-04T15:57:16.884Z,7.82
2023-06-04T15:59:46.352Z,8.70
2023-06-04T16:02:15.033Z,9.75
2023-06-04T16:04:43.673Z,9.20
2023-06-04T16:07:12.162Z,7.20
2023-06-04T16:09:40.725Z,6.60
2023-06-04T16:12:09.664Z,8.27
2023-06-04T16:14:39.505Z,6.97
2023-06-04T16:17:08.321Z,8.68
2023-06-04T16:19:36.746Z,7.90
2023-06-04T16:22:05.314Z,8.18
2023-06-04T16:24:33.850Z,8.82
2023-06-04T16:27:02.398Z,8.57
2023-06-04T16:29:30.885Z,7.95
2023-06-04T16:32:01.054Z,6.95
2023-06-04T16:34:29.733Z,8.20
2023-06-04T16:36:58.457Z,8.70
2023-06-04T16:39:26.979Z,9.70
2023-06-04T16:41:59.288Z,6.97
2023-06-04T16:44:27.935Z,8.00
2023-06-04T16:46:56.670Z,5.95
2023-06-04T16:49:26.522Z,6.60
2023-06-04T16:51:55.106Z,9.55
2023-06-04T16:54:23.564Z,8.25
2023-06-04T16:56:52.526Z,8.00
2023-06-04T16:59:20.999Z,7.75
2023-06-04T17:01:49.543Z,5.97
2023-06-04T17:04:18.134Z,5.22
2023-06-04T17:06:47.942Z,5.15
2023-06-04T17:09:16.460Z,5.95
2023-06-04T17:11:45.116Z,8.40
2023-06-04T17:14:13.654Z,8.07
2023-06-04T17:16:42.104Z,5.18
2023-06-04T17:19:10.632Z,5.80
2023-06-04T17:21:39.266Z,7.05
2023-06-04T17:24:10.005Z,6.35
2023-06-04T17:26:38.670Z,5.00
2023-06-04T17:29:07.178Z,8.77
2023-06-04T17:31:35.615Z,5.05
2023-06-04T17:34:04.247Z,6.25
2023-06-04T17:36:33.056Z,7.55
2023-06-04T17:39:01.722Z,4.90
2023-06-04T17:41:31.528Z,4.75
2023-06-04T17:44:00.397Z,4.38
2023-06-04T17:46:28.895Z,12.13
2023-06-04T17:48:57.514Z,4.43
2023-06-04T17:51:26.064Z,3.70
2023-06-04T17:53:54.886Z,3.88
2023-06-04T17:56:23.512Z,4.85
2023-06-04T17:58:53.428Z,3.25
2023-06-04T18:01:22.250Z,3.60
2023-06-04T18:03:51.211Z,4.95
2023-06-04T18:06:19.731Z,3.10
2023-06-04T18:08:48.353Z,2.80
2023-06-04T18:11:16.867Z,6.18
2023-06-04T18:13:45.887Z,2.97
2023-06-04T18:16:16.969Z,4.68
2023-06-04T18:18:45.901Z,4.10
2023-06-04T18:21:14.471Z,3.40
2023-06-04T18:23:49.951Z,6.05
2023-06-04T18:26:18.571Z,3.78
2023-06-04T18:28:47.047Z,6.18
2023-06-04T18:31:17.020Z,3.63
2023-06-04T18:33:53.405Z,3.17
2023-06-04T18:36:21.862Z,5.32
2023-06-04T18:38:50.252Z,7.68
2023-06-04T18:41:19.366Z,4.95
2023-06-04T18:43:47.888Z,5.80
2023-06-04T18:46:17.803Z,4.80
2023-06-04T18:48:48.203Z,2.92
2023-06-04T18:51:16.681Z,6.50
2023-06-04T18:53:45.378Z,3.88
2023-06-04T18:56:13.879Z,10.32
2023-06-04T18:58:43.279Z,4.65
2023-06-04T19:01:12.199Z,5.18
2023-06-04T19:03:42.055Z,4.63
2023-06-04T19:06:11.126Z,4.43
2023-06-04T19:08:39.665Z,8.43
2023-06-04T19:11:09.316Z,3.85
2023-06-04T19:13:37.772Z,3.72
2023-06-04T19:16:07.402Z,4.03
2023-06-04T19:18:36.061Z,4.53
2023-06-04T19:21:05.908Z,3.35
2023-06-04T19:23:35.435Z,6.07
2023-06-04T19:26:03.871Z,11.88
2023-06-04T19:28:32.447Z,6.05
2023-06-04T19:31:01.039Z,8.80
2023-06-04T19:33:33.510Z,5.10
2023-06-04T19:36:02.376Z,3.10
2023-06-04T19:38:32.251Z,4.65
2023-06-04T19:41:02.496Z,5.45
2023-06-04T19:43:30.960Z,5.40
2023-06-04T19:46:02.862Z,6.03
2023-06-04T19:48:31.735Z,3.08
2023-06-04T19:51:00.183Z,5.10
2023-06-04T19:53:28.894Z,3.05
2023-06-04T19:55:58.724Z,7.75
2023-06-04T19:58:27.918Z,4.13
2023-06-04T20:00:57.001Z,4.25
2023-06-04T20:03:26.170Z,3.13
2023-06-04T20:05:55.994Z,4.97
2023-06-04T20:08:24.652Z,3.67
2023-06-04T20:10:53.529Z,2.78
2023-06-04T20:13:23.332Z,2.97
2023-06-04T20:15:51.787Z,2.95
2023-06-04T20:18:20.562Z,2.40
2023-06-04T20:20:52.965Z,3.00
2023-06-04T20:23:21.658Z,5.38
2023-06-04T20:25:50.291Z,3.75
2023-06-04T20:28:18.690Z,4.13
2023-06-04T20:30:48.725Z,2.97
2023-06-04T20:33:17.637Z,3.13
2023-06-04T20:35:46.307Z,3.38
2023-06-04T20:38:14.731Z,3.20
2023-06-04T20:40:43.205Z,2.80
2023-06-04T20:43:11.817Z,3.47
2023-06-04T20:45:40.188Z,5.32
2023-06-04T20:48:10.148Z,2.83
2023-06-04T20:50:38.648Z,3.17
2023-06-04T20:53:07.079Z,4.78
2023-06-04T20:55:36.395Z,3.20
2023-06-04T20:58:04.889Z,3.83
2023-06-04T21:00:33.806Z,5.60
2023-06-04T21:03:02.310Z,2.95
2023-06-04T21:05:32.234Z,3.28
2023-06-04T21:08:04.512Z,3.05
2023-06-04T21:10:33.196Z,3.25
2023-06-04T21:13:02.117Z,4.85
2023-06-04T21:15:30.638Z,4.35
2023-06-04T21:17:59.169Z,4.43
2023-06-04T21:20:27.647Z,3.65
2023-06-04T21:22:57.459Z,3.55
2023-06-04T21:25:25.981Z,3.08
2023-06-04T21:27:54.374Z,3.95
2023-06-04T21:30:22.756Z,3.83
2023-06-04T21:32:51.494Z,3.95
2023-06-04T21:35:20.233Z,4.82
2023-06-04T21:37:48.787Z,3.28
2023-06-04T21:40:18.590Z,3.88
2023-06-04T21:42:47.101Z,4.32
2023-06-04T21:45:16.399Z,3.17
2023-06-04T21:47:45.471Z,3.40
2023-06-04T21:50:14.179Z,3.10
2023-06-04T21:52:42.549Z,5.65
2023-06-04T21:55:11.233Z,3.30
2023-06-04T21:57:41.132Z,5.63
2023-06-04T22:00:12.689Z,3.55
2023-06-04T22:02:41.400Z,3.92
2023-06-04T22:05:10.884Z,3.00
2023-06-04T22:07:39.447Z,3.90
2023-06-04T22:10:10.096Z,5.93
2023-06-04T22:12:38.508Z,3.20
2023-06-04T22:15:10.048Z,4.05
2023-06-04T22:17:38.556Z,3.15
2023-06-04T22:20:09.215Z,3.05
2023-06-04T22:22:37.668Z,3.90
2023-06-04T22:25:06.712Z,3.22
2023-06-04T22:27:35.301Z,2.80
2023-06-04T22:30:03.903Z,3.78
2023-06-04T22:32:33.771Z,3.10
2023-06-04T22:35:02.191Z,3.53
2023-06-04T22:37:30.750Z,3.75
2023-06-04T22:40:00.497Z,5.70
2023-06-04T22:42:29.049Z,3.65
2023-06-04T22:44:57.829Z,4.38
2023-06-04T22:47:26.922Z,3.05
2023-06-04T22:49:56.964Z,4.90
2023-06-04T22:52:27.070Z,3.42
2023-06-04T22:54:55.812Z,3.00
2023-06-04T22:57:24.458Z,2.97
2023-06-04T22:59:53.352Z,3.33
2023-06-04T23:02:21.999Z,5.07
2023-06-04T23:04:50.488Z,3.33
2023-06-04T23:07:20.362Z,3.53
2023-06-04T23:09:49.183Z,5.53
2023-06-04T23:12:17.823Z,4.75
2023-06-04T23:14:47.023Z,3.47
2023-06-04T23:17:15.771Z,4.80
2023-06-04T23:19:44.253Z,5.32
2023-06-04T23:22:12.965Z,6.55
2023-06-04T23:24:42.874Z,5.03
2023-06-04T23:27:11.604Z,5.15
2023-06-04T23:29:40.052Z,5.75
2023-06-04T23:32:08.650Z,5.45
2023-06-04T23:34:37.194Z,3.05
2023-06-04T23:37:06.839Z,3.60
2023-06-04T23:39:35.365Z,4.25
2023-06-04T23:42:05.587Z,3.38
2023-06-04T23:44:34.058Z,6.22
2023-06-04T23:47:02.580Z,3.65
2023-06-04T23:49:31.043Z,4.72
2023-06-04T23:51:59.963Z,3.30
2023-06-04T23:54:28.432Z,5.75
2023-06-04T23:56:56.839Z,4.22
2023-06-04T23:59:27.549Z,5.65
